Terminal Aerodrome Forecast
Issued by NWS

Home | Current Version | Previous Version | Text Only | Print | Product List | Glossary On
Versions: 1 2 3 4 5 6 7 8 9 10 11 12 13 14 15 16 17 18 19 20 21 22 23 24 25 26 27 28
000
FTUS41 KALY 171700
TAFPSF
TAF
KPSF 171738Z 1718/1818 29007KT P6SM BKN045
     FM172300 23003KT P6SM FEW045
     FM180600 00000KT 4SM BR SCT003 SCT100
      TEMPO 1807/1811 2SM BR BKN003
     FM181300 30005KT P6SM BKN060=

USA.gov is the U.S. government's official web portal to all federal, state and local government web resources and services.